Aeroporto :
LOGIN :

Iscrizione | Disclaimer

   EN    FR    IT 

 










Sommario :    VFR   VFR Marginale   IFR   IFR Intensivo   IFR Molto Intensivo
Visibilità : 
Base nubi : 
>= 8 km
>= 3000ft
5 / 8 km
1000 / 3000 ft
1500m / 5 km
500 / 1000 ft
800 / 1500m
200 / 500 ft
< 800m
< 200 ft
Simboli :   Temporali  Nebbia  Neve Forte  Precipitazioni Forti  Vento > 20 kt
SIGMETs :   Varie  Temporali  Ghiacco  Turbolenza  Onda orograficha  Ceneri Vulcaniche






- Altitudine del aeroporto : 13 ft
- Codice IATA : LYX


EGMD - Lydd

ULTIMO METAR :
  • 131620Z 24006KT CAVOK 23/13 Q1026

METARs OBSOLETI :
  • 131550Z 24006KT 200V260 CAVOK 23/13 Q1026
  • 131520Z 21008KT CAVOK 22/14 Q1026
  • 131450Z 21009KT CAVOK 22/14 Q1026
  • 131350Z 20008KT 170V230 CAVOK 22/14 Q1027
  • 131320Z 20009KT 160V220 CAVOK 21/14 Q1027

TAF TAF EGMD
Valido dal 13 a 15 ore il 14 a 00 ore UTC


131357Z 1315/1324 20008KT 9999 FEW045
ATIS : +44 1797 322 422



MetMap, La meteo Aeronautica in un colpo d'occhio ! - Copyright ORBIFLY Dicembre 2007 - Disclaimer

ORBIFLY MET'MAP TEAM :

Programmazione e sviluppo : Alexandra Zaïnal
Concezione : Baudouin d'Aumeries
Aiuto per la programmazione : Marc-Olivier Méhu
Supporto tecnico e logistico : Manuel Goepfert
Aiuto per la traduzione : Arnaldo La Scala

Contatto : metmap@orbifly.com




FONTI E CREDITI :

   NOAA